Terminal Aerodrome Forecast
Issued by NWS Lake Charles, LA

Home | Current Version | Previous Version | Text Only | Print | Product List | Glossary On
Versions: 1 2 3 4 5 6 7 8 9 10 11 12 13
295
FTUS44 KLCH 021724
TAFARA
TAF
KARA 021724Z 0218/0318 09014KT P6SM BKN090
     FM030000 08012KT P6SM VCSH OVC070
     FM030400 07014G19KT P6SM -RA OVC060
     FM031200 08017G22KT 5SM -RA BR OVC025=

USA.gov is the U.S. government's official web portal to all federal, state and local government web resources and services.